Myrtle Beach International Airport
KMYR : now visible

Airfield :











YOU CAN JOIN US ON...

 
LOGIN :

Register | Disclaimer

   EN    FR    IT 

 









Legend :    VFR   Marginal VFR   IFR   Intensive IFR   Very Intensive IFR
Visi :
Ceiling :
>= 8 km
>= 3000ft
5 to 8 km
1000 to 3000 ft
1500m to 5 km
500 to 1000 ft
800 to 1500m
200 to 500 ft
< 800m
< 200 ft
Symbols :   Thunderstorms  Fog  Heavy snow  Heavy precipitations  Wind > 20 kt







- Airport Elevation : 25 ft
- IATA code : MYR


KMYR - Myrtle Beach International

CURRENT METAR :
  • 270356Z AUTO 33005KT 8SM CLR 27/23 A3001 RMK AO2 SLP162 T02670233

EXPIRED METARs :
  • 270256Z AUTO 23007KT 10SM CLR 27/23 A3000 RMK AO2 SLP159 T02720233 51003
  • 270156Z 20003KT 10SM CLR 27/24 A3000 RMK AO2 SLP159 T02670244

TAF KMYR
Valid from the 27 at 00:00 until the 28 at 00:00 UTC


262320Z 2700/2724 23006KT P6SM SKC
FM270700 27006KT P6SM SKC
FM271200 29007KT P6SM SKC
FM272000 24007G15KT P6SM SCT070
KZJX FIR / North America



MET'MAP, your aeronautical weather chart ! - Copyright ORBIFLY December 2007 - Disclaimer

ORBIFLY MET'MAP TEAM :

Programming & Development : Alexandra Zaïnal
Concept & Development : Baudouin d'Aumeries
Co-Development & Prog : Marc-Olivier Méhu
Technical & hardware support : Manuel Goepfert

Contact : metmap@orbifly.com




SOURCES & CREDITS :

   NOAA       Earth
Advisory